createdAt,value
2018-08-07T00:02:05.632Z,5.93
2018-08-07T00:04:34.466Z,4.97
2018-08-07T00:07:03.324Z,5.40
2018-08-07T00:09:32.173Z,5.20
2018-08-07T00:12:01.017Z,5.27
2018-08-07T00:14:30.095Z,4.87
2018-08-07T00:16:58.932Z,4.87
2018-08-07T00:19:27.863Z,4.83
2018-08-07T00:21:56.680Z,4.83
2018-08-07T00:24:25.551Z,5.10
2018-08-07T00:26:54.249Z,5.83
2018-08-07T00:29:22.906Z,4.87
2018-08-07T00:31:51.828Z,5.70
2018-08-07T00:34:20.645Z,5.70
2018-08-07T00:36:49.372Z,5.50
2018-08-07T00:39:17.952Z,5.37
2018-08-07T00:41:46.957Z,5.83
2018-08-07T00:44:16.287Z,5.70
2018-08-07T00:46:45.102Z,5.77
2018-08-07T00:49:13.924Z,5.63
2018-08-07T00:51:42.786Z,5.90
2018-08-07T00:54:11.612Z,5.77
2018-08-07T00:56:40.567Z,5.10
2018-08-07T00:59:09.621Z,5.90
2018-08-07T01:01:38.416Z,5.67
2018-08-07T01:04:07.301Z,5.33
2018-08-07T01:06:36.127Z,5.07
2018-08-07T01:09:06.880Z,5.27
2018-08-07T01:11:36.202Z,5.27
2018-08-07T01:14:05.676Z,4.73
2018-08-07T01:16:35.307Z,5.77
2018-08-07T01:19:04.144Z,5.40
2018-08-07T01:21:32.936Z,5.07
2018-08-07T01:24:01.789Z,5.30
2018-08-07T01:26:30.607Z,5.27
2018-08-07T01:28:59.556Z,5.30
2018-08-07T01:31:28.474Z,6.23
2018-08-07T01:33:58.362Z,5.77
2018-08-07T01:36:27.164Z,5.83
2018-08-07T01:38:56.081Z,6.13
2018-08-07T01:41:24.906Z,5.93
2018-08-07T01:43:53.669Z,5.73
2018-08-07T01:46:22.494Z,5.17
2018-08-07T01:48:51.391Z,6.07
2018-08-07T01:51:20.148Z,6.10
2018-08-07T01:53:48.974Z,6.50
2018-08-07T01:56:17.769Z,6.23
2018-08-07T01:58:46.654Z,6.33
2018-08-07T02:01:15.481Z,5.43
2018-08-07T02:03:44.793Z,6.03
2018-08-07T02:06:13.365Z,6.60
2018-08-07T02:08:41.815Z,6.57
2018-08-07T02:11:10.370Z,5.87
2018-08-07T02:13:39.213Z,6.10
2018-08-07T02:16:08.034Z,6.23
2018-08-07T02:18:37.212Z,6.10
2018-08-07T02:21:06.355Z,5.77
2018-08-07T02:23:35.181Z,6.13
2018-08-07T02:26:04.324Z,5.40
2018-08-07T02:28:33.089Z,5.90
2018-08-07T02:31:01.930Z,6.20
2018-08-07T02:33:30.501Z,5.97
2018-08-07T02:35:59.296Z,6.13
2018-08-07T02:38:28.167Z,6.17
2018-08-07T02:40:56.980Z,6.47
2018-08-07T02:43:25.804Z,5.77
2018-08-07T02:45:54.603Z,5.80
2018-08-07T02:48:23.405Z,5.87
2018-08-07T02:50:52.244Z,5.20
2018-08-07T02:53:21.085Z,5.67
2018-08-07T02:55:49.925Z,6.03
2018-08-07T02:58:18.790Z,5.77
2018-08-07T03:00:47.635Z,5.97
2018-08-07T03:03:16.413Z,5.60
2018-08-07T03:05:45.197Z,5.93
2018-08-07T03:08:14.040Z,6.43
2018-08-07T03:10:42.848Z,5.93
2018-08-07T03:13:11.700Z,5.93
2018-08-07T03:15:40.510Z,5.70
2018-08-07T03:18:09.121Z,6.10
2018-08-07T03:20:37.740Z,5.37
2018-08-07T03:23:06.528Z,6.03
2018-08-07T03:25:35.564Z,5.83
2018-08-07T03:28:04.790Z,5.60
2018-08-07T03:30:33.625Z,6.10
2018-08-07T03:33:02.443Z,6.40
2018-08-07T03:35:31.386Z,6.97
2018-08-07T03:38:00.156Z,6.10
2018-08-07T03:40:28.959Z,6.00
2018-08-07T03:42:57.736Z,6.10
2018-08-07T03:45:26.635Z,6.30
2018-08-07T03:47:55.392Z,5.97
2018-08-07T03:50:24.273Z,6.43
2018-08-07T03:52:53.080Z,5.97
2018-08-07T03:55:21.877Z,6.33
2018-08-07T03:57:50.744Z,6.60
2018-08-07T04:00:20.150Z,5.80
2018-08-07T04:02:49.009Z,6.27
2018-08-07T04:05:17.856Z,6.00
2018-08-07T04:07:46.690Z,6.27
2018-08-07T04:10:16.213Z,6.00
2018-08-07T04:12:45.097Z,5.73
2018-08-07T04:15:15.365Z,5.70
2018-08-07T04:17:44.208Z,6.30
2018-08-07T04:20:14.966Z,4.90
2018-08-07T04:22:43.816Z,5.23
2018-08-07T04:25:12.634Z,5.57
2018-08-07T04:27:41.499Z,5.07
2018-08-07T04:30:11.681Z,4.73
2018-08-07T04:32:40.813Z,5.07
2018-08-07T04:35:09.699Z,5.17
2018-08-07T04:37:38.535Z,5.33
2018-08-07T04:40:07.680Z,4.40
2018-08-07T04:42:36.476Z,5.10
2018-08-07T04:45:08.317Z,5.70
2018-08-07T04:47:37.136Z,5.70
2018-08-07T04:50:06.026Z,5.53
2018-08-07T04:52:34.926Z,5.57
2018-08-07T04:55:03.917Z,5.23
2018-08-07T04:57:32.827Z,5.60
2018-08-07T05:00:01.681Z,5.83
2018-08-07T05:02:30.615Z,5.60
2018-08-07T05:04:59.485Z,5.27
2018-08-07T05:07:28.260Z,6.17
2018-08-07T05:09:57.081Z,5.63
2018-08-07T05:12:26.047Z,4.70
2018-08-07T05:14:54.909Z,5.00
2018-08-07T05:17:23.725Z,5.50
2018-08-07T05:19:52.558Z,4.90
2018-08-07T05:22:21.392Z,4.93
2018-08-07T05:24:50.221Z,5.53
2018-08-07T05:27:19.004Z,5.67
2018-08-07T05:29:47.823Z,5.00
2018-08-07T05:32:16.685Z,5.60
2018-08-07T05:34:45.485Z,5.63
2018-08-07T05:37:14.064Z,5.90
2018-08-07T05:39:42.718Z,5.40
2018-08-07T05:42:11.728Z,5.23
2018-08-07T05:44:40.549Z,5.27
2018-08-07T05:47:09.646Z,5.77
2018-08-07T05:49:38.600Z,5.10
2018-08-07T05:52:07.384Z,6.30
2018-08-07T05:54:36.161Z,6.33
2018-08-07T05:57:05.145Z,10.30
2018-08-07T05:59:34.473Z,17.73
2018-08-07T06:02:03.329Z,14.00
2018-08-07T06:04:32.173Z,6.13
2018-08-07T06:07:01.061Z,6.80
2018-08-07T06:09:29.879Z,6.47
2018-08-07T06:11:58.760Z,5.67
2018-08-07T06:14:27.597Z,5.67
2018-08-07T06:16:56.443Z,6.50
2018-08-07T06:19:25.301Z,6.90
2018-08-07T06:21:54.193Z,5.80
2018-08-07T06:24:23.085Z,5.33
2018-08-07T06:26:51.925Z,5.37
2018-08-07T06:29:20.751Z,5.10
2018-08-07T06:31:49.557Z,5.23
2018-08-07T06:34:18.406Z,5.07
2018-08-07T06:36:47.279Z,4.20
2018-08-07T06:39:16.128Z,4.47
2018-08-07T06:41:44.979Z,4.70
2018-08-07T06:44:13.826Z,4.80
2018-08-07T06:46:42.640Z,5.13
2018-08-07T06:49:11.571Z,4.70
2018-08-07T06:51:40.393Z,4.47
2018-08-07T06:54:09.252Z,4.77
2018-08-07T06:56:38.063Z,4.30
2018-08-07T06:59:07.069Z,5.07
2018-08-07T07:01:35.869Z,4.63
2018-08-07T07:04:04.824Z,4.63
2018-08-07T07:06:33.632Z,4.80
2018-08-07T07:09:02.509Z,4.80
2018-08-07T07:11:31.349Z,5.00
2018-08-07T07:14:00.234Z,5.07
2018-08-07T07:16:29.041Z,4.33
2018-08-07T07:18:57.910Z,4.80
2018-08-07T07:21:26.721Z,4.20
2018-08-07T07:23:55.540Z,3.90
2018-08-07T07:26:24.361Z,5.03
2018-08-07T07:28:53.177Z,4.23
2018-08-07T07:31:22.053Z,4.40
2018-08-07T07:33:50.922Z,4.40
2018-08-07T07:36:19.737Z,5.10
2018-08-07T07:38:48.548Z,5.23
2018-08-07T07:41:17.460Z,4.10
2018-08-07T07:43:46.392Z,4.40
2018-08-07T07:46:15.229Z,5.30
2018-08-07T07:48:44.054Z,4.33
2018-08-07T07:51:12.930Z,4.17
2018-08-07T07:53:41.756Z,3.93
2018-08-07T07:56:10.616Z,4.40
2018-08-07T07:58:39.506Z,4.40
2018-08-07T08:01:09.355Z,4.90
2018-08-07T08:03:38.528Z,4.30
2018-08-07T08:06:07.431Z,4.20
2018-08-07T08:08:36.169Z,4.63
2018-08-07T08:11:05.002Z,4.10
2018-08-07T08:13:33.791Z,4.03
2018-08-07T08:16:02.634Z,3.80
2018-08-07T08:18:32.086Z,4.13
2018-08-07T08:21:00.892Z,4.07
2018-08-07T08:23:29.709Z,4.03
2018-08-07T08:25:58.783Z,4.57
2018-08-07T08:28:27.708Z,3.97
2018-08-07T08:30:56.689Z,3.77
2018-08-07T08:33:25.613Z,3.87
2018-08-07T08:35:54.407Z,3.50
2018-08-07T08:38:23.279Z,4.00
2018-08-07T08:40:52.164Z,3.77
2018-08-07T08:43:21.643Z,4.50
2018-08-07T08:45:50.925Z,3.87
2018-08-07T08:48:20.632Z,3.43
2018-08-07T08:50:49.617Z,3.83
2018-08-07T08:53:18.667Z,3.50
2018-08-07T08:55:47.759Z,3.87
2018-08-07T08:58:16.831Z,3.47
2018-08-07T09:00:45.722Z,3.70
2018-08-07T09:03:14.579Z,4.43
2018-08-07T09:05:43.379Z,4.07
2018-08-07T09:08:12.178Z,4.20
2018-08-07T09:10:41.127Z,4.27
2018-08-07T09:13:09.799Z,4.03
2018-08-07T09:15:38.764Z,3.97
2018-08-07T09:18:07.803Z,3.60
2018-08-07T09:20:36.640Z,3.30
2018-08-07T09:23:05.466Z,3.97
2018-08-07T09:25:34.132Z,3.60
2018-08-07T09:28:03.071Z,4.23
2018-08-07T09:30:32.112Z,3.47
2018-08-07T09:33:01.011Z,3.70
2018-08-07T09:35:29.797Z,4.47
2018-08-07T09:37:59.376Z,3.90
2018-08-07T09:40:28.282Z,3.70
2018-08-07T09:42:57.105Z,4.07
2018-08-07T09:45:26.728Z,3.57
2018-08-07T09:47:55.607Z,3.70
2018-08-07T09:50:24.212Z,3.63
2018-08-07T09:52:52.831Z,3.80
2018-08-07T09:55:22.170Z,3.90
2018-08-07T09:57:51.049Z,4.10
2018-08-07T10:00:20.440Z,4.37
2018-08-07T10:02:49.628Z,3.90
2018-08-07T10:05:19.703Z,4.30
2018-08-07T10:07:48.548Z,4.03
2018-08-07T10:10:17.360Z,4.07
2018-08-07T10:12:46.406Z,4.07
2018-08-07T10:15:15.349Z,4.10
2018-08-07T10:17:44.397Z,3.67
2018-08-07T10:20:14.198Z,4.80
2018-08-07T10:22:43.808Z,3.80
2018-08-07T10:25:14.209Z,4.07
2018-08-07T10:27:43.100Z,4.40
2018-08-07T10:30:14.517Z,4.00
2018-08-07T10:32:43.617Z,4.10
2018-08-07T10:35:12.467Z,3.90
2018-08-07T10:37:41.336Z,3.60
2018-08-07T10:40:12.365Z,3.83
2018-08-07T10:42:41.258Z,3.83
2018-08-07T10:45:12.693Z,4.27
2018-08-07T10:47:41.523Z,4.33
2018-08-07T10:50:13.150Z,4.10
2018-08-07T10:52:41.983Z,4.50
2018-08-07T10:55:10.576Z,4.10
2018-08-07T10:57:41.034Z,3.73
2018-08-07T11:00:17.078Z,4.03
2018-08-07T11:02:46.015Z,3.87
2018-08-07T11:05:14.921Z,3.87
2018-08-07T11:07:43.764Z,3.80
2018-08-07T11:10:13.484Z,4.23
2018-08-07T11:12:42.692Z,3.60
2018-08-07T11:15:14.297Z,3.40
2018-08-07T11:17:43.119Z,2.90
2018-08-07T11:20:12.324Z,3.70
2018-08-07T11:22:41.488Z,3.47
2018-08-07T11:25:10.609Z,3.63
2018-08-07T11:27:39.432Z,3.90
2018-08-07T11:30:10.585Z,4.20
2018-08-07T11:32:39.507Z,3.80
2018-08-07T11:35:08.496Z,3.50
2018-08-07T11:37:37.364Z,3.73
2018-08-07T11:40:10.523Z,3.53
2018-08-07T11:42:39.120Z,3.87
2018-08-07T11:45:09.636Z,4.27
2018-08-07T11:47:38.778Z,3.30
2018-08-07T11:50:09.922Z,3.63
2018-08-07T11:52:38.820Z,3.40
2018-08-07T11:55:08.810Z,3.80
2018-08-07T11:57:37.725Z,3.57
2018-08-07T12:00:10.698Z,3.40
2018-08-07T12:02:39.689Z,3.50
2018-08-07T12:05:08.610Z,3.73
2018-08-07T12:07:37.522Z,3.87
2018-08-07T12:10:06.382Z,3.50
2018-08-07T12:12:35.280Z,3.27
2018-08-07T12:15:05.466Z,4.10
2018-08-07T12:17:34.260Z,3.83
2018-08-07T12:20:03.835Z,3.17
2018-08-07T12:22:32.789Z,3.10
2018-08-07T12:25:01.716Z,3.60
2018-08-07T12:27:30.663Z,3.63
2018-08-07T12:29:59.540Z,3.53
2018-08-07T12:32:28.508Z,3.70
2018-08-07T12:34:57.549Z,3.27
2018-08-07T12:37:26.341Z,3.37
2018-08-07T12:39:55.181Z,3.40
2018-08-07T12:42:24.026Z,3.70
2018-08-07T12:44:52.890Z,2.63
2018-08-07T12:47:21.709Z,3.30
2018-08-07T12:49:50.592Z,3.33
2018-08-07T12:52:19.514Z,3.07
2018-08-07T12:54:48.189Z,3.13
2018-08-07T12:57:16.760Z,3.00
2018-08-07T12:59:45.617Z,3.00
2018-08-07T13:02:15.112Z,3.20
2018-08-07T13:04:44.012Z,3.03
2018-08-07T13:07:12.821Z,2.83
2018-08-07T13:09:41.638Z,2.80
2018-08-07T13:12:10.670Z,2.90
2018-08-07T13:14:39.544Z,3.03
2018-08-07T13:17:08.660Z,3.10
2018-08-07T13:19:37.458Z,2.80
2018-08-07T13:22:06.526Z,3.27
2018-08-07T13:24:35.355Z,3.27
2018-08-07T13:27:04.236Z,3.07
2018-08-07T13:29:33.119Z,3.20
2018-08-07T13:32:01.944Z,3.00
2018-08-07T13:34:30.761Z,3.27
2018-08-07T13:36:59.729Z,3.47
2018-08-07T13:39:28.543Z,3.60
2018-08-07T13:41:57.404Z,2.97
2018-08-07T13:44:26.470Z,2.70
2018-08-07T13:46:55.331Z,3.73
2018-08-07T13:49:24.165Z,3.10
2018-08-07T13:51:53.038Z,3.30
2018-08-07T13:54:21.873Z,3.57
2018-08-07T13:56:50.720Z,3.40
2018-08-07T13:59:19.669Z,3.17
2018-08-07T14:01:48.520Z,3.13
2018-08-07T14:04:17.341Z,3.43
2018-08-07T14:06:46.178Z,3.53
2018-08-07T14:09:15.104Z,3.53
2018-08-07T14:11:43.880Z,3.47
2018-08-07T14:14:12.772Z,3.90
2018-08-07T14:16:41.632Z,3.43
2018-08-07T14:19:10.470Z,3.70
2018-08-07T14:21:39.384Z,3.87
2018-08-07T14:24:08.235Z,3.47
2018-08-07T14:26:37.077Z,3.30
2018-08-07T14:29:05.912Z,3.23
2018-08-07T14:31:34.899Z,3.50
2018-08-07T14:34:03.700Z,3.23
2018-08-07T14:36:32.549Z,3.30
2018-08-07T14:39:01.322Z,2.97
2018-08-07T14:41:30.363Z,3.10
2018-08-07T14:43:59.280Z,3.03
2018-08-07T14:46:28.548Z,3.67
2018-08-07T14:48:57.591Z,3.43
2018-08-07T14:51:28.900Z,3.27
2018-08-07T14:53:57.633Z,3.53
2018-08-07T14:56:26.029Z,3.43
2018-08-07T14:58:57.788Z,3.40
2018-08-07T15:01:26.616Z,3.17
2018-08-07T15:03:56.265Z,3.20
2018-08-07T15:06:25.583Z,3.40
2018-08-07T15:08:54.557Z,3.40
2018-08-07T15:11:23.490Z,3.70
2018-08-07T15:13:52.389Z,3.30
2018-08-07T15:16:21.323Z,3.13
2018-08-07T15:18:50.149Z,3.57
2018-08-07T15:21:19.019Z,3.67
2018-08-07T15:23:48.262Z,3.83
2018-08-07T15:26:17.168Z,3.53
2018-08-07T15:28:46.152Z,3.33
2018-08-07T15:31:15.129Z,3.67
2018-08-07T15:33:43.935Z,3.60
2018-08-07T15:36:12.793Z,3.60
2018-08-07T15:38:41.654Z,3.47
2018-08-07T15:41:10.681Z,3.20
2018-08-07T15:43:39.818Z,3.33
2018-08-07T15:46:08.872Z,3.37
2018-08-07T15:48:37.743Z,2.77
2018-08-07T15:51:06.859Z,3.40
2018-08-07T15:53:35.717Z,3.50
2018-08-07T15:56:04.653Z,4.07
2018-08-07T15:58:33.495Z,4.40
2018-08-07T16:01:02.338Z,10.73
2018-08-07T16:03:31.281Z,7.07
2018-08-07T16:06:00.223Z,8.83
2018-08-07T16:08:29.078Z,9.10
2018-08-07T16:10:57.941Z,3.80
2018-08-07T16:13:26.910Z,3.80
2018-08-07T16:15:55.855Z,3.70
2018-08-07T16:18:24.711Z,3.73
2018-08-07T16:20:53.561Z,3.30
2018-08-07T16:23:22.390Z,3.37
2018-08-07T16:25:51.241Z,3.63
2018-08-07T16:28:20.086Z,3.40
2018-08-07T16:30:48.947Z,3.47
2018-08-07T16:33:17.966Z,3.60
2018-08-07T16:35:47.096Z,3.30
2018-08-07T16:38:15.975Z,3.27
2018-08-07T16:40:44.925Z,3.30
2018-08-07T16:43:13.732Z,3.23
2018-08-07T16:45:42.576Z,3.77
2018-08-07T16:48:11.745Z,3.83
2018-08-07T16:50:40.685Z,3.17
2018-08-07T16:53:09.675Z,3.83
2018-08-07T16:55:38.240Z,3.63
2018-08-07T16:58:06.911Z,3.90
2018-08-07T17:00:35.516Z,3.60
2018-08-07T17:03:03.921Z,4.10
2018-08-07T17:05:32.568Z,3.90
2018-08-07T17:08:01.445Z,4.10
2018-08-07T17:10:30.376Z,5.00
2018-08-07T17:12:59.404Z,4.60
2018-08-07T17:15:29.269Z,4.33
2018-08-07T17:17:58.316Z,4.13
2018-08-07T17:20:28.372Z,3.83
2018-08-07T17:22:57.467Z,3.80
2018-08-07T17:25:26.040Z,3.23
2018-08-07T17:27:54.706Z,3.10
2018-08-07T17:30:24.467Z,3.23
2018-08-07T17:32:53.341Z,3.33
2018-08-07T17:35:22.245Z,2.87
2018-08-07T17:37:52.430Z,3.37
2018-08-07T17:40:22.611Z,3.33
2018-08-07T17:42:51.541Z,3.13
2018-08-07T17:45:20.780Z,3.23
2018-08-07T17:47:49.720Z,3.07
2018-08-07T17:50:22.563Z,3.57
2018-08-07T17:52:53.635Z,3.23
2018-08-07T17:55:22.533Z,3.10
2018-08-07T17:57:51.969Z,3.47
2018-08-07T18:00:21.207Z,3.53
2018-08-07T18:02:50.117Z,2.93
2018-08-07T18:05:18.903Z,3.67
2018-08-07T18:07:48.740Z,3.17
2018-08-07T18:10:18.780Z,6.57
2018-08-07T18:12:48.115Z,7.10
2018-08-07T18:15:17.476Z,5.57
2018-08-07T18:17:46.391Z,6.23
2018-08-07T18:20:17.736Z,4.13
2018-08-07T18:22:46.645Z,4.67
2018-08-07T18:25:15.537Z,3.37
2018-08-07T18:27:44.579Z,3.17
2018-08-07T18:30:14.733Z,3.57
2018-08-07T18:32:43.640Z,3.50
2018-08-07T18:35:15.073Z,3.77
2018-08-07T18:37:43.954Z,4.27
2018-08-07T18:40:12.854Z,4.17
2018-08-07T18:42:41.775Z,3.77
2018-08-07T18:45:13.331Z,3.90
2018-08-07T18:47:42.307Z,4.33
2018-08-07T18:50:13.700Z,4.10
2018-08-07T18:52:43.181Z,4.27
2018-08-07T18:55:13.157Z,4.10
2018-08-07T18:57:41.862Z,3.63
2018-08-07T19:00:11.668Z,3.63
2018-08-07T19:02:40.590Z,4.67
2018-08-07T19:05:11.415Z,4.00
2018-08-07T19:07:40.260Z,3.63
2018-08-07T19:10:10.005Z,4.00
2018-08-07T19:12:38.914Z,3.50
2018-08-07T19:15:08.960Z,4.73
2018-08-07T19:17:37.831Z,5.33
2018-08-07T19:20:07.727Z,4.37
2018-08-07T19:22:36.679Z,4.37
2018-08-07T19:25:06.758Z,5.13
2018-08-07T19:27:35.885Z,5.87
2018-08-07T19:30:07.300Z,6.27
2018-08-07T19:32:36.241Z,5.30
2018-08-07T19:35:05.522Z,4.43
2018-08-07T19:37:34.133Z,4.60
2018-08-07T19:40:04.381Z,4.87
2018-08-07T19:42:33.379Z,4.77
2018-08-07T19:45:02.418Z,5.63
2018-08-07T19:47:31.270Z,5.37
2018-08-07T19:50:00.179Z,5.90
2018-08-07T19:52:29.065Z,5.10
2018-08-07T19:54:57.918Z,4.40
2018-08-07T19:57:26.998Z,4.27
2018-08-07T19:59:55.890Z,3.80
2018-08-07T20:02:25.229Z,4.60
2018-08-07T20:04:56.380Z,4.23
2018-08-07T20:07:25.601Z,4.83
2018-08-07T20:09:54.518Z,4.13
2018-08-07T20:12:23.429Z,4.40
2018-08-07T20:14:53.403Z,5.07
2018-08-07T20:17:22.296Z,4.57
2018-08-07T20:19:51.190Z,3.97
2018-08-07T20:22:20.095Z,4.67
2018-08-07T20:24:49.010Z,4.77
2018-08-07T20:27:17.937Z,4.50
2018-08-07T20:29:46.934Z,4.73
2018-08-07T20:32:16.300Z,5.17
2018-08-07T20:34:45.220Z,5.70
2018-08-07T20:37:14.116Z,5.50
2018-08-07T20:40:24.084Z,7.03
2018-08-07T20:42:53.774Z,5.03
2018-08-07T20:45:21.972Z,5.33
2018-08-07T20:47:50.263Z,5.20
2018-08-07T20:50:22.430Z,5.17
2018-08-07T20:52:51.115Z,5.30
2018-08-07T20:55:19.275Z,5.37
2018-08-07T20:57:47.321Z,4.47
2018-08-07T21:00:17.578Z,4.10
2018-08-07T21:02:45.976Z,4.47
2018-08-07T21:05:15.193Z,4.33
2018-08-07T21:07:43.491Z,3.93
2018-08-07T21:10:13.754Z,3.97
2018-08-07T21:12:42.094Z,4.03
2018-08-07T21:15:10.235Z,4.10
2018-08-07T21:17:38.359Z,3.90
2018-08-07T21:20:08.845Z,3.60
2018-08-07T21:22:39.587Z,4.20
2018-08-07T21:25:10.047Z,4.57
2018-08-07T21:27:38.149Z,4.53
2018-08-07T21:30:08.420Z,4.77
2018-08-07T21:32:36.520Z,4.10
2018-08-07T21:35:05.458Z,4.30
2018-08-07T21:37:33.523Z,4.10
2018-08-07T21:40:01.958Z,4.60
2018-08-07T21:42:30.132Z,4.73
2018-08-07T21:44:58.464Z,4.10
2018-08-07T21:47:26.544Z,4.20
2018-08-07T21:49:54.607Z,4.43
2018-08-07T21:52:22.694Z,4.43
2018-08-07T21:54:50.785Z,4.47
2018-08-07T21:57:18.916Z,4.13
2018-08-07T21:59:47.034Z,4.60
2018-08-07T22:02:15.146Z,5.77
2018-08-07T22:04:43.405Z,4.40
2018-08-07T22:07:11.570Z,4.20
2018-08-07T22:09:39.735Z,5.10
2018-08-07T22:12:07.808Z,4.70
2018-08-07T22:14:35.858Z,4.40
2018-08-07T22:17:04.591Z,5.00
2018-08-07T22:19:32.684Z,4.50
2018-08-07T22:22:00.873Z,4.70
2018-08-07T22:24:29.108Z,4.50
2018-08-07T22:26:57.129Z,4.50
2018-08-07T22:29:25.239Z,5.40
2018-08-07T22:31:53.648Z,5.10
2018-08-07T22:34:22.200Z,4.73
2018-08-07T22:36:50.280Z,5.00
2018-08-07T22:39:18.496Z,4.63
2018-08-07T22:41:46.707Z,4.67
2018-08-07T22:44:14.827Z,4.90
2018-08-07T22:46:42.990Z,4.93
2018-08-07T22:49:11.005Z,4.63
2018-08-07T22:51:39.161Z,5.23
2018-08-07T22:54:07.222Z,4.77
2018-08-07T22:56:35.302Z,4.93
2018-08-07T22:59:03.665Z,5.20
2018-08-07T23:01:31.809Z,4.93
2018-08-07T23:04:00.258Z,5.37
2018-08-07T23:06:29.153Z,5.30
2018-08-07T23:08:57.269Z,4.83
2018-08-07T23:11:25.339Z,5.53
2018-08-07T23:13:53.562Z,4.70
2018-08-07T23:16:22.264Z,5.20
2018-08-07T23:18:50.344Z,4.90
2018-08-07T23:21:18.380Z,5.33
2018-08-07T23:23:46.521Z,5.60
2018-08-07T23:26:15.773Z,5.10
2018-08-07T23:28:43.907Z,6.10
2018-08-07T23:31:11.937Z,5.23
2018-08-07T23:33:39.989Z,5.70
2018-08-07T23:36:08.170Z,5.07
2018-08-07T23:38:36.251Z,5.60
2018-08-07T23:41:04.685Z,5.43
2018-08-07T23:43:32.728Z,4.90
2018-08-07T23:46:00.786Z,5.67
2018-08-07T23:48:28.864Z,5.83
2018-08-07T23:50:56.967Z,5.23
2018-08-07T23:53:25.007Z,4.97
2018-08-07T23:55:53.036Z,5.50
2018-08-07T23:58:21.110Z,5.23
